Time;durP1;ratioP1;P1;durP2;ratioP2;P2;SDS_P1;SDS_P2;PMS_P1;PMS_P2;Temp;Humidity;BMP_temperature;BMP_pressure;BME280_temperature;BME280_humidity;BME280_pressure;Samples;Min_cycle;Max_cycle;Signal;HPM_P1;HPM_P2
2022/07/09 00:00:42;;;;;;;4.10;3.90;;;;;;;21.41;78.07;94963.06;5069962;27;20213;-69
2022/07/09 00:03:09;;;;;;;3.85;3.65;;;;;;;21.39;77.72;94959.78;5068318;27;20277;-68
2022/07/09 00:05:36;;;;;;;3.88;3.58;;;;;;;21.52;77.05;94963.06;5069878;27;20649;-66
2022/07/09 00:08:03;;;;;;;3.80;3.67;;;;;;;21.43;77.51;94961.19;5068594;27;20204;-68
2022/07/09 00:10:30;;;;;;;3.60;3.40;;;;;;;21.46;77.31;94960.13;5068746;27;20231;-68
2022/07/09 00:12:59;;;;;;;3.30;3.10;;;;;;;21.50;76.75;94964.94;5069730;27;20205;-67
2022/07/09 00:15:26;;;;;;;11.45;8.80;;;;;;;21.59;76.31;94961.63;5069087;27;20211;-66
2022/07/09 00:17:54;;;;;;;5.72;5.20;;;;;;;21.66;75.88;94962.78;5067957;27;20205;-65
2022/07/09 00:20:21;;;;;;;4.18;3.97;;;;;;;21.72;75.45;94954.56;5068927;27;20246;-65
2022/07/09 00:22:47;;;;;;;4.35;4.05;;;;;;;21.82;75.13;94946.03;5069960;28;20205;-69
2022/07/09 00:25:14;;;;;;;3.85;3.55;;;;;;;21.89;74.74;94952.38;5070549;27;20286;-67
2022/07/09 00:27:41;;;;;;;3.90;3.40;;;;;;;21.76;75.55;94941.38;5068996;27;20670;-66
2022/07/09 00:30:09;;;;;;;3.15;2.85;;;;;;;21.50;76.56;94936.50;5064765;27;20294;-67
2022/07/09 00:32:36;;;;;;;5.68;3.35;;;;;;;21.17;77.90;94934.75;5068321;27;20212;-69
2022/07/09 00:35:04;;;;;;;3.42;3.22;;;;;;;21.10;78.46;94932.72;5070113;27;20209;-66
2022/07/09 00:37:31;;;;;;;3.30;3.10;;;;;;;20.95;78.81;94927.81;5069345;27;20227;-69
2022/07/09 00:39:58;;;;;;;2.80;2.60;;;;;;;20.74;79.87;94929.44;5068690;27;20258;-68
2022/07/09 00:42:25;;;;;;;3.47;3.28;;;;;;;20.49;80.99;94922.72;5069509;27;20204;-68
2022/07/09 00:44:51;;;;;;;2.97;2.78;;;;;;;20.56;80.83;94928.22;5069581;27;20259;-66
2022/07/09 00:47:18;;;;;;;3.08;2.88;;;;;;;20.42;81.17;94925.88;5068210;27;20265;-67
2022/07/09 00:49:45;;;;;;;3.00;2.80;;;;;;;20.46;81.10;94932.44;5067203;27;20710;-67
2022/07/09 00:52:17;;;;;;;2.83;2.72;;;;;;;20.41;81.53;94927.63;5068624;27;20830;-66
2022/07/09 00:54:44;;;;;;;3.20;3.00;;;;;;;20.39;81.36;94921.75;5069336;27;20201;-65
2022/07/09 00:57:12;;;;;;;5.07;3.33;;;;;;;20.29;82.07;94916.41;5068788;27;20216;-64
2022/07/09 00:59:40;;;;;;;2.70;2.53;;;;;;;20.33;81.64;94912.66;5066939;27;20560;-68
2022/07/09 01:02:07;;;;;;;2.50;2.40;;;;;;;20.43;81.30;94906.88;5066182;28;20262;-65
2022/07/09 01:04:34;;;;;;;2.70;2.60;;;;;;;20.40;81.38;94914.84;5069343;27;20225;-68
2022/07/09 01:07:01;;;;;;;3.85;2.65;;;;;;;20.44;81.12;94909.34;5068533;27;20745;-68
2022/07/09 01:09:30;;;;;;;5.43;3.30;;;;;;;20.51;80.99;94904.53;5067464;28;20261;-66
2022/07/09 01:11:58;;;;;;;2.47;2.38;;;;;;;20.44;80.74;94908.50;5068873;28;20200;-67
2022/07/09 01:14:24;;;;;;;3.08;2.53;;;;;;;20.38;81.18;94908.03;5067833;28;20208;-68
2022/07/09 01:16:59;;;;;;;7.47;2.42;;;;;;;20.40;80.93;94904.50;5068910;28;21029;-67
2022/07/09 01:19:26;;;;;;;2.95;2.85;;;;;;;20.31;81.45;94898.22;5067693;28;20200;-68
2022/07/09 01:21:54;;;;;;;4.68;3.03;;;;;;;20.28;81.31;94904.47;5068116;28;20228;-66
2022/07/09 01:24:21;;;;;;;2.67;2.53;;;;;;;20.41;80.66;94904.41;5065590;28;20781;-68
2022/07/09 01:26:49;;;;;;;4.90;2.88;;;;;;;20.23;81.50;94893.66;5068816;28;20887;-68
2022/07/09 01:29:15;;;;;;;2.80;2.67;;;;;;;20.42;80.83;94900.06;5069033;28;20205;-68
2022/07/09 01:31:42;;;;;;;30.42;22.00;;;;;;;20.55;79.98;94896.44;5067650;28;20201;-67
2022/07/09 01:34:09;;;;;;;41.53;27.75;;;;;;;20.47;80.02;94891.03;5068362;28;20685;-67
2022/07/09 01:36:36;;;;;;;4.25;3.95;;;;;;;20.46;80.37;94891.97;5068689;28;22048;-69
2022/07/09 01:39:05;;;;;;;6.20;5.65;;;;;;;20.43;79.84;94889.63;5066909;28;20364;-71
2022/07/09 01:41:32;;;;;;;6.03;5.50;;;;;;;20.40;80.45;94891.59;5067991;28;21764;-67
2022/07/09 01:43:59;;;;;;;5.00;4.60;;;;;;;20.35;80.45;94894.50;5069637;28;20593;-67
2022/07/09 01:46:26;;;;;;;2.85;2.75;;;;;;;20.38;80.19;94894.28;5070228;28;20224;-67
2022/07/09 01:48:52;;;;;;;2.97;2.78;;;;;;;20.61;79.50;94897.72;5067325;28;20209;-67
2022/07/09 01:51:21;;;;;;;3.28;2.97;;;;;;;20.84;77.88;94889.06;5066796;28;20208;-67
2022/07/09 01:53:48;;;;;;;2.38;2.28;;;;;;;20.99;77.01;94895.66;5067532;28;20205;-65
2022/07/09 01:56:16;;;;;;;2.75;2.63;;;;;;;20.83;77.46;94891.75;5068282;28;20201;-66
2022/07/09 01:58:43;;;;;;;2.35;2.20;;;;;;;20.70;78.04;94895.28;5067895;28;20193;-66
2022/07/09 02:01:10;;;;;;;2.28;2.17;;;;;;;20.65;77.89;94894.81;5066212;28;20570;-67
2022/07/09 02:03:37;;;;;;;3.22;2.83;;;;;;;20.58;78.57;94892.78;5068559;28;20290;-64
2022/07/09 02:06:04;;;;;;;2.58;2.45;;;;;;;20.26;79.67;94883.13;5066765;28;20229;-67
2022/07/09 02:08:31;;;;;;;2.83;2.72;;;;;;;20.25;80.23;94894.38;5069401;28;20258;-64
2022/07/09 02:10:57;;;;;;;2.70;2.50;;;;;;;20.09;80.84;94893.84;5068598;27;20201;-67
2022/07/09 02:13:26;;;;;;;2.42;1.95;;;;;;;20.19;80.37;94889.66;5070617;27;20205;-66
2022/07/09 02:15:53;;;;;;;2.22;2.13;;;;;;;20.24;79.77;94897.06;5070550;27;20232;-67
2022/07/09 02:18:19;;;;;;;2.45;2.20;;;;;;;20.20;79.91;94901.63;5072046;27;20270;-65
2022/07/09 02:20:46;;;;;;;2.47;2.38;;;;;;;20.14;79.83;94896.91;5071568;27;20200;-66
2022/07/09 02:23:13;;;;;;;2.80;2.60;;;;;;;20.00;80.61;94900.50;5071910;27;20649;-68
2022/07/09 02:25:40;;;;;;;2.67;2.45;;;;;;;19.92;80.42;94902.81;5073406;27;20229;-67
2022/07/09 02:28:06;;;;;;;2.63;2.42;;;;;;;19.78;81.47;94905.59;5073399;27;20205;-68
2022/07/09 02:30:36;;;;;;;2.53;2.40;;;;;;;19.83;81.48;94902.66;5070977;27;20277;-68
2022/07/09 02:33:03;;;;;;;2.55;2.42;;;;;;;19.77;81.62;94908.28;5071372;27;20215;-65
2022/07/09 02:35:30;;;;;;;3.10;2.90;;;;;;;19.76;81.96;94911.78;5072265;27;20204;-66
2022/07/09 02:37:57;;;;;;;2.13;1.92;;;;;;;19.81;81.80;94913.06;5072588;27;20216;-63
2022/07/09 02:40:24;;;;;;;2.38;2.17;;;;;;;19.85;81.82;94914.50;5070853;27;20262;-64
2022/07/09 02:42:51;;;;;;;2.83;2.63;;;;;;;19.79;81.74;94914.16;5071251;27;20208;-66
2022/07/09 02:45:17;;;;;;;3.58;2.30;;;;;;;19.81;81.69;94917.41;5071505;27;20656;-68
2022/07/09 02:47:45;;;;;;;2.35;2.25;;;;;;;19.88;81.09;94914.28;5070607;27;20622;-67
2022/07/09 02:50:12;;;;;;;2.35;2.25;;;;;;;19.98;80.79;94906.72;5073533;27;20770;-64
2022/07/09 02:52:39;;;;;;;2.97;2.10;;;;;;;20.02;80.25;94908.13;5071914;27;20262;-66
2022/07/09 02:55:07;;;;;;;3.95;2.17;;;;;;;19.78;81.76;94917.66;5072352;27;20205;-67
2022/07/09 02:57:33;;;;;;;2.30;2.20;;;;;;;19.91;81.05;94918.41;5072725;27;20224;-68
2022/07/09 03:00:00;;;;;;;2.72;2.63;;;;;;;19.75;82.01;94915.28;5071426;27;20204;-63
2022/07/09 03:02:27;;;;;;;2.67;2.47;;;;;;;19.85;81.66;94926.56;5071063;27;20309;-64
2022/07/09 03:04:55;;;;;;;2.50;2.40;;;;;;;19.79;81.72;94922.69;5073422;27;20511;-65
2022/07/09 03:07:23;;;;;;;2.50;2.40;;;;;;;19.75;82.01;94920.44;5072534;27;20216;-67
2022/07/09 03:09:50;;;;;;;2.80;2.45;;;;;;;19.65;82.66;94926.25;5071278;27;20201;-64
2022/07/09 03:12:17;;;;;;;5.60;2.58;;;;;;;19.68;82.90;94918.31;5069936;27;20226;-64
2022/07/09 03:14:43;;;;;;;2.85;2.38;;;;;;;19.81;82.43;94930.31;5069545;27;20257;-65
2022/07/09 03:17:10;;;;;;;6.10;3.78;;;;;;;19.69;82.34;94927.69;5071711;27;20252;-66
2022/07/09 03:19:37;;;;;;;2.92;2.72;;;;;;;19.41;83.65;94921.97;5071135;27;20756;-67
2022/07/09 03:22:05;;;;;;;3.30;3.20;;;;;;;19.41;84.63;94927.97;5071071;27;20204;-68
2022/07/09 03:24:32;;;;;;;2.78;2.67;;;;;;;19.31;84.34;94921.78;5070322;27;20236;-64
2022/07/09 03:26:59;;;;;;;2.33;2.22;;;;;;;19.40;83.88;94926.31;5071134;27;20597;-65
2022/07/09 03:29:26;;;;;;;3.00;2.80;;;;;;;19.50;83.98;94927.34;5072530;27;20201;-66
2022/07/09 03:31:53;;;;;;;2.80;2.67;;;;;;;19.63;83.05;94920.38;5072056;27;20200;-68
2022/07/09 03:34:20;;;;;;;4.78;2.90;;;;;;;19.75;82.83;94923.03;5071194;27;20291;-69
2022/07/09 03:36:47;;;;;;;2.70;2.38;;;;;;;19.83;81.94;94923.28;5071546;27;20567;-67
2022/07/09 03:39:15;;;;;;;2.70;2.60;;;;;;;19.77;82.19;94924.56;5071416;27;20213;-66
2022/07/09 03:41:42;;;;;;;2.88;2.67;;;;;;;19.73;82.67;94922.31;5072781;27;20197;-68
2022/07/09 03:44:09;;;;;;;2.40;2.30;;;;;;;19.79;82.43;94925.28;5073030;27;20462;-68
2022/07/09 03:46:35;;;;;;;3.70;2.50;;;;;;;19.89;82.18;94917.69;5071488;27;20272;-63
2022/07/09 03:49:02;;;;;;;3.03;2.85;;;;;;;19.83;82.16;94916.38;5072150;27;20245;-64
2022/07/09 03:51:29;;;;;;;2.45;2.35;;;;;;;19.85;82.54;94917.06;5072034;27;20258;-65
2022/07/09 03:53:56;;;;;;;3.45;3.17;;;;;;;19.83;82.85;94924.09;5070974;27;20214;-64
2022/07/09 03:56:24;;;;;;;2.95;2.85;;;;;;;19.97;81.43;94930.84;5070657;27;20201;-66
2022/07/09 03:58:51;;;;;;;2.50;2.40;;;;;;;19.87;82.39;94922.13;5071648;27;20244;-67
2022/07/09 04:01:18;;;;;;;3.38;3.17;;;;;;;19.85;82.57;94921.41;5070925;27;20201;-66
2022/07/09 04:03:45;;;;;;;3.22;2.90;;;;;;;19.94;82.23;94920.75;5071730;27;20261;-66
2022/07/09 04:06:12;;;;;;;3.58;3.13;;;;;;;19.86;82.33;94928.22;5069442;27;20225;-67
2022/07/09 04:08:39;;;;;;;4.40;3.03;;;;;;;19.79;83.02;94927.84;5071779;27;20725;-66
2022/07/09 04:11:05;;;;;;;2.40;2.30;;;;;;;19.85;82.72;94921.41;5073633;27;20254;-68
2022/07/09 04:13:33;;;;;;;4.97;3.20;;;;;;;20.04;81.51;94934.66;5070182;27;20197;-67
2022/07/09 04:16:00;;;;;;;3.08;2.88;;;;;;;20.07;81.49;94931.00;5070314;27;20215;-67
2022/07/09 04:18:27;;;;;;;2.90;2.80;;;;;;;19.99;82.16;94936.72;5073104;27;20213;-66
2022/07/09 04:20:54;;;;;;;3.83;2.50;;;;;;;19.96;82.17;94934.38;5071586;27;20642;-67
2022/07/09 04:23:21;;;;;;;2.70;2.60;;;;;;;20.05;81.38;94938.84;5070268;27;20205;-69
2022/07/09 04:25:50;;;;;;;3.17;2.50;;;;;;;20.19;80.14;94936.09;5070047;27;20240;-67
2022/07/09 04:28:17;;;;;;;8.20;2.72;;;;;;;20.20;80.25;94937.75;5070771;27;20254;-66
2022/07/09 04:30:45;;;;;;;21.60;16.35;;;;;;;20.09;81.17;94942.84;5071636;27;20200;-67
2022/07/09 04:33:12;;;;;;;16.90;13.18;;;;;;;20.01;81.08;94950.34;5069881;28;20209;-66
2022/07/09 04:35:39;;;;;;;4.80;4.40;;;;;;;20.08;80.65;94948.13;5071362;27;20281;-67
2022/07/09 04:38:06;;;;;;;7.45;6.85;;;;;;;20.16;80.27;94941.47;5070732;27;20816;-67
2022/07/09 04:40:32;;;;;;;5.88;5.45;;;;;;;20.28;79.84;94930.28;5071215;27;20205;-68
2022/07/09 04:42:59;;;;;;;7.70;4.35;;;;;;;20.31;79.47;94939.53;5070252;28;20229;-66
2022/07/09 04:45:26;;;;;;;5.22;4.82;;;;;;;20.32;79.37;94936.00;5071325;27;20204;-68
2022/07/09 04:47:54;;;;;;;7.05;6.55;;;;;;;20.28;79.35;94932.03;5070094;27;20221;-68
2022/07/09 04:50:21;;;;;;;4.95;3.75;;;;;;;20.37;78.95;94933.94;5070659;27;20269;-64
2022/07/09 04:52:48;;;;;;;5.57;4.57;;;;;;;20.38;78.82;94931.25;5069535;27;20205;-68
2022/07/09 04:55:15;;;;;;;4.68;3.70;;;;;;;20.25;79.49;94933.06;5072449;27;20282;-67
2022/07/09 04:57:42;;;;;;;4.43;4.20;;;;;;;20.23;79.82;94928.97;5071660;27;20196;-63
2022/07/09 05:00:10;;;;;;;4.65;4.25;;;;;;;20.29;79.29;94934.47;5069424;27;20797;-66
2022/07/09 05:02:37;;;;;;;3.38;2.80;;;;;;;20.42;78.61;94937.00;5069751;27;20200;-68
2022/07/09 05:05:07;;;;;;;128.90;75.15;;;;;;;20.31;79.17;94936.94;5070618;27;20224;-69
2022/07/09 05:07:34;;;;;;;10.77;9.35;;;;;;;20.40;79.06;94932.91;5070017;28;20248;-68
2022/07/09 05:10:01;;;;;;;8.18;6.53;;;;;;;20.58;78.13;94947.84;5069786;28;20721;-66
2022/07/09 05:12:28;;;;;;;11.80;10.50;;;;;;;20.58;78.13;94947.00;5069930;27;20212;-64
2022/07/09 05:14:55;;;;;;;5.40;4.88;;;;;;;20.53;78.27;94943.97;5069514;28;20983;-65
2022/07/09 05:17:23;;;;;;;10.43;7.82;;;;;;;20.53;78.46;94949.13;5069778;28;20201;-67
2022/07/09 05:19:50;;;;;;;5.80;5.30;;;;;;;20.59;78.13;94958.97;5069453;27;20691;-65
2022/07/09 05:22:18;;;;;;;8.00;7.40;;;;;;;20.58;78.03;94957.34;5069153;28;20209;-66
2022/07/09 05:24:45;;;;;;;7.90;7.30;;;;;;;20.68;77.66;94956.56;5070000;28;20228;-67
2022/07/09 05:27:12;;;;;;;10.35;7.30;;;;;;;20.82;77.05;94955.50;5071439;28;20221;-68
2022/07/09 05:29:39;;;;;;;4.38;4.07;;;;;;;20.71;77.13;94958.09;5068647;28;21064;-64
2022/07/09 05:32:07;;;;;;;6.22;5.82;;;;;;;20.68;77.11;94963.47;5070787;28;20209;-65
2022/07/09 05:34:34;;;;;;;8.95;8.05;;;;;;;20.75;76.73;94967.25;5070941;28;20205;-67
2022/07/09 05:37:00;;;;;;;7.03;4.53;;;;;;;20.75;76.45;94976.75;5069621;28;20193;-64
2022/07/09 05:39:28;;;;;;;3.53;3.22;;;;;;;20.58;77.21;94967.66;5070280;28;20205;-67
2022/07/09 05:41:55;;;;;;;7.35;6.75;;;;;;;20.54;77.52;94966.28;5070044;28;20657;-66
2022/07/09 05:44:22;;;;;;;5.47;5.07;;;;;;;20.45;77.90;94966.94;5069221;28;20212;-65
2022/07/09 05:46:49;;;;;;;3.58;3.38;;;;;;;20.46;78.18;94968.59;5070327;27;20231;-67
2022/07/09 05:49:16;;;;;;;3.47;3.20;;;;;;;20.50;78.17;94967.44;5073527;27;20632;-66
2022/07/09 05:51:42;;;;;;;3.35;3.00;;;;;;;20.41;78.54;94968.91;5073806;27;20209;-68
2022/07/09 05:54:09;;;;;;;2.50;2.40;;;;;;;20.44;78.67;94967.88;5073864;27;20193;-68
2022/07/09 05:56:38;;;;;;;3.00;2.80;;;;;;;20.50;77.83;94970.00;5074885;27;20209;-64
2022/07/09 05:59:05;;;;;;;2.60;2.50;;;;;;;20.55;77.96;94976.47;5072962;27;20236;-67
2022/07/09 06:01:32;;;;;;;2.72;2.63;;;;;;;20.48;78.71;94966.72;5074496;27;20582;-67
2022/07/09 06:03:59;;;;;;;4.75;2.88;;;;;;;20.35;79.03;94967.56;5073165;27;20331;-67
2022/07/09 06:06:25;;;;;;;2.53;2.42;;;;;;;20.34;79.88;94970.28;5073369;27;20706;-66
2022/07/09 06:08:53;;;;;;;2.78;2.67;;;;;;;20.37;79.07;94970.91;5073449;27;20205;-66
2022/07/09 06:11:20;;;;;;;4.43;2.72;;;;;;;20.44;78.97;94975.63;5073456;27;20205;-67
2022/07/09 06:13:48;;;;;;;3.22;2.85;;;;;;;20.39;79.12;94978.53;5072649;27;20273;-69
2022/07/09 06:16:15;;;;;;;2.78;2.67;;;;;;;20.26;79.78;94975.19;5072515;27;20745;-64
2022/07/09 06:18:42;;;;;;;3.08;2.80;;;;;;;20.13;80.22;94971.84;5073419;27;20201;-67
2022/07/09 06:21:09;;;;;;;2.63;2.42;;;;;;;20.20;79.69;94976.44;5071367;27;20307;-66
2022/07/09 06:23:35;;;;;;;2.80;2.70;;;;;;;20.10;80.57;94977.22;5068969;27;20204;-69
2022/07/09 06:26:02;;;;;;;2.67;2.47;;;;;;;20.20;80.08;94976.44;5072650;27;20233;-67
2022/07/09 06:28:29;;;;;;;2.58;2.47;;;;;;;20.18;80.25;94977.50;5071963;27;20216;-66
2022/07/09 06:30:57;;;;;;;3.08;2.88;;;;;;;20.25;80.15;94987.25;5071693;27;20271;-66
2022/07/09 06:33:24;;;;;;;3.08;2.78;;;;;;;20.28;80.17;94981.88;5070064;27;20209;-66
2022/07/09 06:35:50;;;;;;;2.47;2.38;;;;;;;20.22;80.08;94987.47;5072965;27;20208;-67
2022/07/09 06:38:17;;;;;;;18.55;13.30;;;;;;;20.08;80.77;94979.91;5071333;27;20252;-67
2022/07/09 06:40:44;;;;;;;9.68;7.97;;;;;;;19.94;81.81;94982.66;5072090;27;20258;-67
2022/07/09 06:43:12;;;;;;;3.25;3.05;;;;;;;19.66;82.90;94987.19;5073297;27;20197;-68
2022/07/09 06:45:39;;;;;;;3.38;3.13;;;;;;;19.57;83.66;94992.97;5071769;27;20212;-66
2022/07/09 06:48:07;;;;;;;3.40;3.20;;;;;;;19.45;85.65;94988.66;5068818;27;20326;-66
2022/07/09 06:50:33;;;;;;;18.23;12.73;;;;;;;19.60;84.53;94989.38;5073093;27;20213;-67
2022/07/09 06:53:00;;;;;;;8.48;7.80;;;;;;;19.59;84.49;94995.44;5071562;27;20246;-66
2022/07/09 06:55:28;;;;;;;9.35;8.13;;;;;;;19.52;84.63;94992.50;5074059;27;20205;-65
2022/07/09 06:57:54;;;;;;;6.15;4.50;;;;;;;19.49;85.27;94994.44;5070703;27;20800;-68
2022/07/09 07:00:23;;;;;;;6.55;6.05;;;;;;;19.61;85.03;94991.03;5072762;27;20208;-67
2022/07/09 07:02:50;;;;;;;5.10;4.80;;;;;;;19.58;85.77;94991.22;5071892;27;20232;-66
2022/07/09 07:05:18;;;;;;;5.70;4.32;;;;;;;19.44;86.36;94993.94;5073748;27;20228;-65
2022/07/09 07:07:45;;;;;;;10.52;8.98;;;;;;;19.46;86.87;94990.31;5072070;27;20294;-69
2022/07/09 07:10:12;;;;;;;12.40;8.93;;;;;;;19.56;86.71;94988.75;5071624;27;20658;-68
2022/07/09 07:12:40;;;;;;;4.88;4.47;;;;;;;19.60;85.19;94987.63;5072011;27;20201;-68
2022/07/09 07:15:08;;;;;;;4.65;4.35;;;;;;;19.52;86.65;94997.66;5072319;27;20625;-69
2022/07/09 07:17:35;;;;;;;4.07;3.85;;;;;;;19.58;87.03;94997.22;5068801;27;20197;-65
2022/07/09 07:20:01;;;;;;;4.00;3.60;;;;;;;19.70;86.35;94996.38;5072029;27;20270;-69
2022/07/09 07:22:29;;;;;;;3.65;3.35;;;;;;;19.75;86.80;94992.66;5071861;27;20270;-66
2022/07/09 07:24:56;;;;;;;4.72;3.78;;;;;;;19.87;85.83;94989.19;5073191;27;20240;-68
2022/07/09 07:27:23;;;;;;;3.33;3.13;;;;;;;19.90;85.44;94986.38;5072062;27;21683;-67
2022/07/09 07:29:50;;;;;;;3.88;3.58;;;;;;;20.04;85.33;94988.81;5072492;27;20208;-65
2022/07/09 07:32:17;;;;;;;5.63;4.00;;;;;;;19.90;85.84;94986.38;5071497;27;20194;-68
2022/07/09 07:34:43;;;;;;;3.20;3.10;;;;;;;20.08;83.97;94987.63;5071771;27;20212;-64
2022/07/09 07:37:10;;;;;;;3.90;3.42;;;;;;;20.10;83.40;94983.19;5072052;27;20205;-67
2022/07/09 07:39:38;;;;;;;7.88;7.28;;;;;;;20.02;83.57;94986.34;5070777;27;20201;-68
2022/07/09 07:42:07;;;;;;;6.00;5.70;;;;;;;19.99;85.23;94985.75;5072822;27;20196;-68
2022/07/09 07:44:33;;;;;;;4.93;4.63;;;;;;;20.38;84.04;94988.03;5071698;27;20339;-66
2022/07/09 07:47:00;;;;;;;4.25;3.58;;;;;;;20.52;81.86;94984.47;5071651;27;20212;-67
2022/07/09 07:49:27;;;;;;;4.07;3.72;;;;;;;20.37;83.19;94978.66;5070198;27;20201;-66
2022/07/09 07:51:54;;;;;;;3.17;2.97;;;;;;;20.41;82.98;94981.00;5071657;27;20273;-67
2022/07/09 07:54:21;;;;;;;4.15;3.78;;;;;;;20.39;83.26;94994.03;5071944;27;20209;-68
2022/07/09 07:56:50;;;;;;;24.63;17.75;;;;;;;20.32;82.69;94991.03;5071882;27;20219;-67
2022/07/09 07:59:16;;;;;;;42.40;28.63;;;;;;;20.39;82.87;94994.03;5070864;27;20518;-67
2022/07/09 08:01:43;;;;;;;10.20;9.18;;;;;;;20.43;83.25;94994.63;5070795;27;20261;-66
2022/07/09 08:04:10;;;;;;;17.23;14.48;;;;;;;20.42;82.19;94983.47;5071293;27;20209;-67
2022/07/09 08:06:37;;;;;;;8.30;7.50;;;;;;;20.36;81.71;94989.03;5071327;27;20257;-68
2022/07/09 08:09:04;;;;;;;6.30;5.70;;;;;;;20.38;82.66;94990.63;5069728;27;20224;-66
2022/07/09 08:11:31;;;;;;;5.32;4.93;;;;;;;20.46;82.29;94984.06;5070520;27;20205;-69
2022/07/09 08:13:59;;;;;;;5.22;4.82;;;;;;;20.68;81.77;94978.97;5070997;27;20257;-68
2022/07/09 08:16:26;;;;;;;5.20;4.80;;;;;;;20.84;80.86;94981.22;5069843;27;20594;-67
2022/07/09 08:18:53;;;;;;;4.75;4.35;;;;;;;21.03;78.73;94981.50;5069562;27;20230;-67
2022/07/09 08:21:19;;;;;;;4.85;4.55;;;;;;;21.01;78.66;94981.59;5070587;27;20678;-67
2022/07/09 08:23:53;;;;;;;4.50;4.20;;;;;;;21.01;79.06;94981.59;5069745;27;20208;-69
2022/07/09 08:26:21;;;;;;;4.60;4.28;;;;;;;20.90;78.84;94985.94;5070364;27;20258;-68
2022/07/09 08:28:48;;;;;;;5.03;4.72;;;;;;;21.10;78.45;94990.41;5069966;27;20224;-66
2022/07/09 08:31:16;;;;;;;6.55;6.03;;;;;;;21.00;77.97;94982.56;5070442;27;20535;-69
2022/07/09 08:33:43;;;;;;;18.60;11.85;;;;;;;20.85;78.08;94983.69;5071450;27;20219;-69
2022/07/09 08:36:10;;;;;;;6.72;6.22;;;;;;;20.83;79.45;94982.97;5070375;27;20211;-67
2022/07/09 08:38:36;;;;;;;4.40;4.07;;;;;;;20.89;78.41;94992.84;5068782;28;20875;-68
2022/07/09 08:41:05;;;;;;;7.95;7.28;;;;;;;20.80;78.44;94987.53;5070140;27;20631;-66
2022/07/09 08:43:33;;;;;;;5.88;5.47;;;;;;;20.62;79.91;94990.56;5069815;27;20261;-66
2022/07/09 08:46:00;;;;;;;4.75;4.45;;;;;;;20.51;79.88;94987.97;5070591;27;20200;-66
2022/07/09 08:48:28;;;;;;;88.90;58.20;;;;;;;20.44;80.43;95001.44;5069426;27;20242;-70
2022/07/09 08:50:58;;;;;;;112.07;68.90;;;;;;;20.42;80.78;95004.13;5070086;27;20212;-68
2022/07/09 08:53:27;;;;;;;5.25;4.95;;;;;;;20.26;82.33;94996.66;5069967;27;21422;-69
2022/07/09 08:55:55;;;;;;;5.30;5.00;;;;;;;20.32;81.78;94993.59;5069033;27;20232;-67
2022/07/09 08:58:22;;;;;;;7.53;5.43;;;;;;;20.48;81.16;94989.97;5068824;27;20197;-68
2022/07/09 09:00:49;;;;;;;5.35;5.05;;;;;;;20.31;82.16;94997.13;5069126;27;20648;-68
2022/07/09 09:03:17;;;;;;;5.43;5.03;;;;;;;20.26;82.65;94996.66;5069497;27;20204;-67
2022/07/09 09:05:45;;;;;;;5.20;4.70;;;;;;;20.10;84.57;94997.84;5071245;27;20229;-65
2022/07/09 09:08:19;;;;;;;5.47;5.00;;;;;;;20.21;82.90;94991.00;5070166;27;20224;-69
2022/07/09 09:10:47;;;;;;;15.55;11.45;;;;;;;20.13;82.98;94993.31;5069218;28;20200;-66
2022/07/09 09:13:16;;;;;;;21.63;17.10;;;;;;;20.06;84.04;94997.25;5069648;27;20365;-69
2022/07/09 09:15:43;;;;;;;23.27;17.83;;;;;;;19.90;84.53;94996.69;5069251;27;20201;-67
2022/07/09 09:18:09;;;;;;;8.40;7.35;;;;;;;20.15;83.73;94998.34;5068102;28;20216;-66
2022/07/09 09:20:36;;;;;;;6.80;6.22;;;;;;;20.31;83.52;94997.13;5064479;28;20266;-68
2022/07/09 09:23:10;;;;;;;6.32;5.82;;;;;;;20.53;82.80;94995.59;5068099;28;20213;-67
2022/07/09 09:25:38;;;;;;;6.45;5.35;;;;;;;20.68;81.88;95004.78;5068106;27;20236;-67
2022/07/09 09:28:05;;;;;;;5.38;4.97;;;;;;;20.87;81.44;94994.72;5066259;28;20224;-67
2022/07/09 09:30:32;;;;;;;5.35;4.97;;;;;;;21.00;80.75;95005.81;5068975;28;20205;-68
2022/07/09 09:33:00;;;;;;;4.95;4.25;;;;;;;21.04;81.54;94994.28;5070765;28;20260;-68
2022/07/09 09:35:28;;;;;;;6.45;3.92;;;;;;;21.08;80.51;94994.88;5068311;28;20200;-65
2022/07/09 09:37:55;;;;;;;5.97;5.50;;;;;;;20.97;80.82;94998.28;5065285;28;20204;-69
2022/07/09 09:40:24;;;;;;;15.10;13.60;;;;;;;21.07;79.87;95000.97;5066322;28;20309;-66
2022/07/09 09:42:51;;;;;;;18.65;12.70;;;;;;;21.11;79.83;95009.31;5066202;28;20312;-67
2022/07/09 09:45:18;;;;;;;9.80;8.93;;;;;;;21.06;79.83;95004.50;5065864;28;20197;-66
2022/07/09 09:47:47;;;;;;;17.13;14.23;;;;;;;21.11;79.54;95006.72;5065626;28;20197;-66
2022/07/09 09:50:18;;;;;;;26.85;20.83;;;;;;;21.18;78.94;95002.75;5065772;28;20368;-68
2022/07/09 09:52:46;;;;;;;14.57;12.88;;;;;;;21.25;78.97;94998.81;5068136;28;20631;-66
2022/07/09 09:55:14;;;;;;;19.58;17.48;;;;;;;21.30;78.67;94999.25;5067961;28;20216;-68
2022/07/09 09:57:43;;;;;;;26.10;20.20;;;;;;;21.40;78.60;95007.94;5065559;28;20258;-66
2022/07/09 10:00:12;;;;;;;81.22;53.05;;;;;;;21.54;77.52;95007.69;5066514;28;20209;-67
2022/07/09 10:02:41;;;;;;;60.83;40.10;;;;;;;21.66;77.47;95003.34;5067536;28;20248;-67
2022/07/09 10:05:08;;;;;;;31.50;22.58;;;;;;;21.64;77.46;95006.06;5067128;28;20982;-68
2022/07/09 10:07:35;;;;;;;38.17;26.55;;;;;;;21.76;76.66;95003.47;5065429;28;20201;-66
2022/07/09 10:10:02;;;;;;;12.13;10.45;;;;;;;21.70;76.93;95003.00;5066866;28;20273;-66
2022/07/09 10:12:30;;;;;;;23.30;13.55;;;;;;;21.72;76.84;95003.69;5069567;28;20208;-71
2022/07/09 10:14:58;;;;;;;9.18;7.78;;;;;;;21.67;77.58;94998.06;5070123;28;20815;-66
2022/07/09 10:17:26;;;;;;;7.18;6.30;;;;;;;21.38;79.28;95000.31;5069441;28;20404;-69
2022/07/09 10:19:54;;;;;;;6.32;5.70;;;;;;;21.24;80.42;95005.72;5108920;28;20209;-69
2022/07/09 10:22:21;;;;;;;9.27;6.45;;;;;;;21.19;80.46;95004.41;5111008;28;20193;-68
2022/07/09 10:24:51;;;;;;;21.65;15.27;;;;;;;21.10;80.92;95005.09;5110150;28;20706;-69
2022/07/09 10:27:18;;;;;;;22.67;17.77;;;;;;;21.13;80.09;95005.69;5110579;28;20204;-69
2022/07/09 10:29:56;;;;;;;32.22;23.70;;;;;;;20.79;80.85;95004.81;5109982;28;20282;-68
2022/07/09 10:32:26;;;;;;;22.70;16.40;;;;;;;20.67;82.15;95013.47;5111825;28;20197;-69
2022/07/09 10:34:58;;;;;;;12.52;9.98;;;;;;;20.77;81.75;95017.03;5114251;28;20287;-70
2022/07/09 10:37:33;;;;;;;12.82;11.50;;;;;;;20.87;81.92;95015.38;5113043;28;20276;-69
2022/07/09 10:40:13;;;;;;;18.83;12.93;;;;;;;20.87;80.53;95023.13;5112224;28;20269;-69
2022/07/09 10:42:41;;;;;;;6.35;5.85;;;;;;;20.58;81.43;95019.31;5112488;28;20192;-66
2022/07/09 10:45:37;;;;;;;9.50;8.50;;;;;;;20.79;80.88;95025.47;5112045;28;20570;-69
2022/07/09 10:48:07;;;;;;;6.57;5.75;;;;;;;20.95;79.83;95020.81;5094336;28;20197;-69
2022/07/09 10:50:41;;;;;;;5.18;3.85;;;;;;;20.80;78.60;95014.19;5112128;28;20621;-68
2022/07/09 10:53:09;;;;;;;4.25;3.92;;;;;;;20.67;79.35;95016.06;5113767;28;20197;-69
2022/07/09 10:55:36;;;;;;;3.90;3.13;;;;;;;20.63;78.98;95027.53;5113892;28;20209;-67
2022/07/09 10:58:07;;;;;;;3.60;3.40;;;;;;;20.46;80.04;95021.03;5113358;28;20288;-69
2022/07/09 11:00:34;;;;;;;2.90;2.70;;;;;;;20.66;79.20;95022.16;5113834;28;20250;-68
2022/07/09 11:03:03;;;;;;;3.50;3.25;;;;;;;20.84;78.10;95023.38;5113573;28;20197;-69
2022/07/09 11:05:32;;;;;;;2.95;2.78;;;;;;;21.00;77.30;95021.31;5113235;28;20209;-68
2022/07/09 11:08:02;;;;;;;3.00;2.80;;;;;;;21.05;77.00;95020.94;5113468;28;20197;-68
2022/07/09 11:10:29;;;;;;;3.17;2.97;;;;;;;21.06;77.12;95020.81;5113648;28;20591;-68
2022/07/09 11:12:58;;;;;;;5.97;5.10;;;;;;;21.14;76.77;95024.59;5113331;28;20704;-69
2022/07/09 11:15:26;;;;;;;5.85;4.78;;;;;;;21.22;76.30;95030.03;5113283;28;20712;-69
2022/07/09 11:18:00;;;;;;;3.10;2.90;;;;;;;21.06;75.43;95026.00;5113223;28;20207;-69
2022/07/09 11:20:27;;;;;;;2.30;2.20;;;;;;;20.77;76.51;95029.94;5113098;28;20193;-67
2022/07/09 11:22:57;;;;;;;2.92;2.78;;;;;;;20.63;77.80;95024.97;5113095;28;20584;-69
2022/07/09 11:25:25;;;;;;;2.88;2.72;;;;;;;20.40;78.39;95028.41;5112929;28;20309;-69
2022/07/09 11:27:52;;;;;;;2.72;2.53;;;;;;;20.17;79.10;95030.84;5112807;28;20287;-70
2022/07/09 11:30:18;;;;;;;3.00;2.80;;;;;;;19.97;79.16;95024.53;5113268;28;20278;-70
2022/07/09 11:32:46;;;;;;;2.65;2.45;;;;;;;20.03;79.31;95018.13;5112915;28;20197;-70